sensor_id;sensor_type;location;lat;lon;timestamp;pressure;altitude;pressure_sealevel;temperature;humidity
4398;BME280;2213;49.720;7.296;2023-06-26T00:00:30;98036.94;;;20.64;89.08
4398;BME280;2213;49.720;7.296;2023-06-26T00:03:00;98038.47;;;20.59;89.42
4398;BME280;2213;49.720;7.296;2023-06-26T00:05:29;98032.56;;;20.52;89.71
4398;BME280;2213;49.720;7.296;2023-06-26T00:07:58;98034.69;;;20.50;90.09
4398;BME280;2213;49.720;7.296;2023-06-26T00:10:27;98025.59;;;20.46;90.16
4398;BME280;2213;49.720;7.296;2023-06-26T00:12:56;98029.56;;;20.44;90.08
4398;BME280;2213;49.720;7.296;2023-06-26T00:15:25;98027.16;;;20.42;90.23
4398;BME280;2213;49.720;7.296;2023-06-26T00:18:00;98018.56;;;20.35;90.59
4398;BME280;2213;49.720;7.296;2023-06-26T00:20:30;98019.31;;;20.31;91.14
4398;BME280;2213;49.720;7.296;2023-06-26T00:23:01;98024.50;;;20.21;92.03
4398;BME280;2213;49.720;7.296;2023-06-26T00:25:31;98030.50;;;20.11;93.13
4398;BME280;2213;49.720;7.296;2023-06-26T00:28:00;98034.66;;;20.02;93.99
4398;BME280;2213;49.720;7.296;2023-06-26T00:30:29;98022.97;;;20.03;93.58
4398;BME280;2213;49.720;7.296;2023-06-26T00:32:59;98036.00;;;20.04;93.09
4398;BME280;2213;49.720;7.296;2023-06-26T00:35:27;98033.09;;;20.06;92.63
4398;BME280;2213;49.720;7.296;2023-06-26T00:37:56;98034.16;;;20.05;93.02
4398;BME280;2213;49.720;7.296;2023-06-26T00:40:25;98032.97;;;19.96;93.92
4398;BME280;2213;49.720;7.296;2023-06-26T00:42:55;98030.88;;;19.98;94.12
4398;BME280;2213;49.720;7.296;2023-06-26T00:45:24;98031.59;;;19.93;94.52
4398;BME280;2213;49.720;7.296;2023-06-26T00:48:11;98032.59;;;19.87;94.36
4398;BME280;2213;49.720;7.296;2023-06-26T00:50:42;98024.03;;;19.80;94.44
4398;BME280;2213;49.720;7.296;2023-06-26T00:53:11;98027.41;;;19.76;94.96
4398;BME280;2213;49.720;7.296;2023-06-26T00:55:40;98034.00;;;19.73;95.35
4398;BME280;2213;49.720;7.296;2023-06-26T00:58:10;98030.50;;;19.68;95.56
4398;BME280;2213;49.720;7.296;2023-06-26T01:00:40;98026.09;;;19.56;96.72
4398;BME280;2213;49.720;7.296;2023-06-26T01:03:15;98030.41;;;19.63;96.24
4398;BME280;2213;49.720;7.296;2023-06-26T01:05:44;98032.28;;;19.62;95.58
4398;BME280;2213;49.720;7.296;2023-06-26T01:08:20;98029.31;;;19.58;95.81
4398;BME280;2213;49.720;7.296;2023-06-26T01:10:50;98020.22;;;19.54;96.13
4398;BME280;2213;49.720;7.296;2023-06-26T01:13:20;98016.72;;;19.49;96.59
4398;BME280;2213;49.720;7.296;2023-06-26T01:15:49;98021.16;;;19.43;97.40
4398;BME280;2213;49.720;7.296;2023-06-26T01:18:22;98020.00;;;19.39;98.00
4398;BME280;2213;49.720;7.296;2023-06-26T01:20:53;98029.22;;;19.37;97.71
4398;BME280;2213;49.720;7.296;2023-06-26T01:23:37;98024.66;;;19.32;98.12
4398;BME280;2213;49.720;7.296;2023-06-26T01:26:20;98015.09;;;19.31;98.08
4398;BME280;2213;49.720;7.296;2023-06-26T01:28:51;98016.06;;;19.25;98.49
4398;BME280;2213;49.720;7.296;2023-06-26T01:31:20;98005.47;;;19.25;98.38
4398;BME280;2213;49.720;7.296;2023-06-26T01:33:50;98014.09;;;19.16;99.34
4398;BME280;2213;49.720;7.296;2023-06-26T01:36:19;98017.06;;;19.19;99.28
4398;BME280;2213;49.720;7.296;2023-06-26T01:38:48;98020.47;;;19.20;98.80
4398;BME280;2213;49.720;7.296;2023-06-26T01:41:19;98018.09;;;19.18;98.50
4398;BME280;2213;49.720;7.296;2023-06-26T01:44:08;98020.75;;;19.18;98.74
4398;BME280;2213;49.720;7.296;2023-06-26T01:46:47;98020.97;;;19.17;98.39
4398;BME280;2213;49.720;7.296;2023-06-26T01:49:31;98020.91;;;19.12;98.62
4398;BME280;2213;49.720;7.296;2023-06-26T01:52:12;98021.13;;;19.10;98.95
4398;BME280;2213;49.720;7.296;2023-06-26T01:54:54;98021.94;;;19.10;98.90
4398;BME280;2213;49.720;7.296;2023-06-26T01:57:27;98027.75;;;19.07;99.65
4398;BME280;2213;49.720;7.296;2023-06-26T01:59:59;98022.03;;;18.99;100.00
4398;BME280;2213;49.720;7.296;2023-06-26T02:02:29;98015.03;;;18.93;100.00
4398;BME280;2213;49.720;7.296;2023-06-26T02:04:58;98018.19;;;18.90;100.00
4398;BME280;2213;49.720;7.296;2023-06-26T02:07:27;98018.97;;;18.90;100.00
4398;BME280;2213;49.720;7.296;2023-06-26T02:09:56;98016.50;;;18.84;100.00
4398;BME280;2213;49.720;7.296;2023-06-26T02:12:27;98017.69;;;18.76;100.00
4398;BME280;2213;49.720;7.296;2023-06-26T02:14:56;98012.06;;;18.73;100.00
4398;BME280;2213;49.720;7.296;2023-06-26T02:17:26;98013.69;;;18.74;100.00
4398;BME280;2213;49.720;7.296;2023-06-26T02:19:56;98019.78;;;18.74;100.00
4398;BME280;2213;49.720;7.296;2023-06-26T02:22:24;98007.25;;;18.70;100.00
4398;BME280;2213;49.720;7.296;2023-06-26T02:24:56;98008.22;;;18.64;100.00
4398;BME280;2213;49.720;7.296;2023-06-26T02:27:26;98011.25;;;18.55;100.00
4398;BME280;2213;49.720;7.296;2023-06-26T02:29:56;98013.88;;;18.55;100.00
4398;BME280;2213;49.720;7.296;2023-06-26T02:32:25;98004.81;;;18.51;100.00
4398;BME280;2213;49.720;7.296;2023-06-26T02:34:54;98001.81;;;18.48;100.00
4398;BME280;2213;49.720;7.296;2023-06-26T02:37:23;97999.41;;;18.46;100.00
4398;BME280;2213;49.720;7.296;2023-06-26T02:39:52;98001.00;;;18.47;100.00
4398;BME280;2213;49.720;7.296;2023-06-26T02:42:21;98008.13;;;18.47;100.00
4398;BME280;2213;49.720;7.296;2023-06-26T02:44:52;98004.22;;;18.49;100.00
4398;BME280;2213;49.720;7.296;2023-06-26T02:47:21;97998.28;;;18.42;100.00
4398;BME280;2213;49.720;7.296;2023-06-26T02:49:50;97998.44;;;18.36;100.00
4398;BME280;2213;49.720;7.296;2023-06-26T02:52:20;97993.34;;;18.34;100.00
4398;BME280;2213;49.720;7.296;2023-06-26T02:54:49;97997.69;;;18.40;100.00
4398;BME280;2213;49.720;7.296;2023-06-26T02:57:18;98000.28;;;18.35;100.00
4398;BME280;2213;49.720;7.296;2023-06-26T02:59:46;97999.13;;;18.31;100.00
4398;BME280;2213;49.720;7.296;2023-06-26T03:02:18;98003.75;;;18.24;100.00
4398;BME280;2213;49.720;7.296;2023-06-26T03:04:48;98007.38;;;18.18;100.00
4398;BME280;2213;49.720;7.296;2023-06-26T03:07:17;98004.72;;;18.18;100.00
4398;BME280;2213;49.720;7.296;2023-06-26T03:09:45;98006.44;;;18.13;100.00
4398;BME280;2213;49.720;7.296;2023-06-26T03:12:14;98002.78;;;18.14;100.00
4398;BME280;2213;49.720;7.296;2023-06-26T03:14:42;97997.81;;;18.17;100.00
4398;BME280;2213;49.720;7.296;2023-06-26T03:17:13;98002.06;;;18.18;100.00
4398;BME280;2213;49.720;7.296;2023-06-26T03:19:43;98003.56;;;18.14;100.00
4398;BME280;2213;49.720;7.296;2023-06-26T03:22:12;98007.25;;;18.13;100.00
4398;BME280;2213;49.720;7.296;2023-06-26T03:24:41;97997.63;;;18.07;100.00
4398;BME280;2213;49.720;7.296;2023-06-26T03:27:12;97994.84;;;18.02;100.00
4398;BME280;2213;49.720;7.296;2023-06-26T03:29:45;97986.38;;;18.00;100.00
4398;BME280;2213;49.720;7.296;2023-06-26T03:32:14;97992.28;;;17.90;100.00
4398;BME280;2213;49.720;7.296;2023-06-26T03:34:45;97990.66;;;17.89;100.00
4398;BME280;2213;49.720;7.296;2023-06-26T03:37:14;97990.31;;;17.86;100.00
4398;BME280;2213;49.720;7.296;2023-06-26T03:39:43;97994.09;;;17.90;100.00
4398;BME280;2213;49.720;7.296;2023-06-26T03:42:12;97991.00;;;17.93;100.00
4398;BME280;2213;49.720;7.296;2023-06-26T03:44:42;97991.94;;;17.87;100.00
4398;BME280;2213;49.720;7.296;2023-06-26T03:47:12;97994.31;;;18.00;100.00
4398;BME280;2213;49.720;7.296;2023-06-26T03:49:40;97992.06;;;18.08;100.00
4398;BME280;2213;49.720;7.296;2023-06-26T03:52:13;97998.91;;;18.04;100.00
4398;BME280;2213;49.720;7.296;2023-06-26T03:54:43;97995.13;;;18.00;100.00
4398;BME280;2213;49.720;7.296;2023-06-26T03:57:12;97998.22;;;17.97;100.00
4398;BME280;2213;49.720;7.296;2023-06-26T03:59:41;98001.09;;;17.96;100.00
4398;BME280;2213;49.720;7.296;2023-06-26T04:02:10;97996.63;;;17.96;100.00
4398;BME280;2213;49.720;7.296;2023-06-26T04:04:40;97996.16;;;17.88;100.00
4398;BME280;2213;49.720;7.296;2023-06-26T04:07:10;97996.91;;;17.83;100.00
4398;BME280;2213;49.720;7.296;2023-06-26T04:09:39;97996.16;;;17.88;100.00
4398;BME280;2213;49.720;7.296;2023-06-26T04:12:08;97998.13;;;17.92;100.00
4398;BME280;2213;49.720;7.296;2023-06-26T04:14:37;97995.72;;;17.91;100.00
4398;BME280;2213;49.720;7.296;2023-06-26T04:17:07;98000.44;;;17.89;100.00
4398;BME280;2213;49.720;7.296;2023-06-26T04:19:35;98001.03;;;17.91;100.00
4398;BME280;2213;49.720;7.296;2023-06-26T04:22:04;98001.72;;;17.86;100.00
4398;BME280;2213;49.720;7.296;2023-06-26T04:24:36;98006.66;;;17.83;100.00
4398;BME280;2213;49.720;7.296;2023-06-26T04:27:06;98007.00;;;17.86;100.00
4398;BME280;2213;49.720;7.296;2023-06-26T04:29:35;98000.44;;;17.89;100.00
4398;BME280;2213;49.720;7.296;2023-06-26T04:32:05;98002.59;;;17.92;100.00
4398;BME280;2213;49.720;7.296;2023-06-26T04:34:35;98002.59;;;17.92;100.00
4398;BME280;2213;49.720;7.296;2023-06-26T04:37:08;98000.63;;;17.99;100.00
4398;BME280;2213;49.720;7.296;2023-06-26T04:39:39;98000.41;;;18.00;100.00
4398;BME280;2213;49.720;7.296;2023-06-26T04:42:08;97998.56;;;18.01;100.00
4398;BME280;2213;49.720;7.296;2023-06-26T04:44:38;98006.94;;;17.98;100.00
4398;BME280;2213;49.720;7.296;2023-06-26T04:47:08;98007.53;;;18.00;100.00
4398;BME280;2213;49.720;7.296;2023-06-26T04:49:37;98006.03;;;18.04;100.00
4398;BME280;2213;49.720;7.296;2023-06-26T04:52:06;98004.97;;;18.05;100.00
4398;BME280;2213;49.720;7.296;2023-06-26T04:54:34;98013.38;;;18.02;100.00
4398;BME280;2213;49.720;7.296;2023-06-26T04:57:05;98006.44;;;18.13;100.00
4398;BME280;2213;49.720;7.296;2023-06-26T04:59:36;98007.38;;;18.18;100.00
4398;BME280;2213;49.720;7.296;2023-06-26T05:02:06;97998.47;;;18.24;100.00
4398;BME280;2213;49.720;7.296;2023-06-26T05:04:34;97993.50;;;18.28;100.00
4398;BME280;2213;49.720;7.296;2023-06-26T05:07:03;97996.47;;;18.31;100.00
4398;BME280;2213;49.720;7.296;2023-06-26T05:09:32;97993.34;;;18.34;100.00
4398;BME280;2213;49.720;7.296;2023-06-26T05:12:04;97998.16;;;18.37;100.00
4398;BME280;2213;49.720;7.296;2023-06-26T05:14:32;97995.19;;;18.34;100.00
4398;BME280;2213;49.720;7.296;2023-06-26T05:17:01;97994.16;;;18.35;100.00
4398;BME280;2213;49.720;7.296;2023-06-26T05:19:30;97983.75;;;18.45;100.00
4398;BME280;2213;49.720;7.296;2023-06-26T05:22:01;97988.13;;;18.51;100.00
4398;BME280;2213;49.720;7.296;2023-06-26T05:24:32;97982.66;;;18.57;100.00
4398;BME280;2213;49.720;7.296;2023-06-26T05:27:05;97984.75;;;18.55;100.00
4398;BME280;2213;49.720;7.296;2023-06-26T05:29:34;97990.13;;;18.60;100.00
4398;BME280;2213;49.720;7.296;2023-06-26T05:32:06;97983.88;;;18.67;100.00
4398;BME280;2213;49.720;7.296;2023-06-26T05:34:36;97996.16;;;18.73;100.00
4398;BME280;2213;49.720;7.296;2023-06-26T05:37:07;97988.88;;;18.80;100.00
4398;BME280;2213;49.720;7.296;2023-06-26T05:39:38;97984.44;;;18.85;100.00
4398;BME280;2213;49.720;7.296;2023-06-26T05:42:10;97981.88;;;18.90;100.00
4398;BME280;2213;49.720;7.296;2023-06-26T05:44:39;97982.53;;;18.97;100.00
4398;BME280;2213;49.720;7.296;2023-06-26T05:47:08;97988.47;;;19.04;100.00
4398;BME280;2213;49.720;7.296;2023-06-26T05:49:37;97978.72;;;19.10;100.00
4398;BME280;2213;49.720;7.296;2023-06-26T05:52:08;97978.56;;;19.17;100.00
4398;BME280;2213;49.720;7.296;2023-06-26T05:54:39;97985.88;;;19.26;100.00
4398;BME280;2213;49.720;7.296;2023-06-26T05:57:10;97983.75;;;19.28;100.00
4398;BME280;2213;49.720;7.296;2023-06-26T05:59:43;97973.78;;;19.35;100.00
4398;BME280;2213;49.720;7.296;2023-06-26T06:02:15;97971.78;;;19.42;100.00
4398;BME280;2213;49.720;7.296;2023-06-26T06:04:44;97980.59;;;19.48;100.00
4398;BME280;2213;49.720;7.296;2023-06-26T06:07:13;97990.25;;;19.54;100.00
4398;BME280;2213;49.720;7.296;2023-06-26T06:09:42;97976.81;;;19.61;100.00
4398;BME280;2213;49.720;7.296;2023-06-26T06:12:12;97980.09;;;19.68;100.00
4398;BME280;2213;49.720;7.296;2023-06-26T06:14:40;97990.25;;;19.76;100.00
4398;BME280;2213;49.720;7.296;2023-06-26T06:17:09;97987.41;;;19.82;100.00
4398;BME280;2213;49.720;7.296;2023-06-26T06:19:38;97993.59;;;19.88;100.00
4398;BME280;2213;49.720;7.296;2023-06-26T06:22:07;97985.19;;;19.96;100.00
4398;BME280;2213;49.720;7.296;2023-06-26T06:24:35;98000.13;;;20.02;100.00
4398;BME280;2213;49.720;7.296;2023-06-26T06:27:04;97997.03;;;20.10;100.00
4398;BME280;2213;49.720;7.296;2023-06-26T06:29:34;97994.97;;;20.17;100.00
4398;BME280;2213;49.720;7.296;2023-06-26T06:32:03;98000.34;;;20.22;100.00
4398;BME280;2213;49.720;7.296;2023-06-26T06:34:32;98004.44;;;20.30;100.00
4398;BME280;2213;49.720;7.296;2023-06-26T06:37:03;97995.25;;;20.37;100.00
4398;BME280;2213;49.720;7.296;2023-06-26T06:39:33;98012.81;;;20.43;100.00
4398;BME280;2213;49.720;7.296;2023-06-26T06:42:03;98011.81;;;20.49;100.00
4398;BME280;2213;49.720;7.296;2023-06-26T06:44:32;98007.09;;;20.56;100.00
4398;BME280;2213;49.720;7.296;2023-06-26T06:47:02;98009.81;;;20.62;100.00
4398;BME280;2213;49.720;7.296;2023-06-26T06:49:31;98006.94;;;20.68;100.00
4398;BME280;2213;49.720;7.296;2023-06-26T06:52:01;98001.41;;;20.75;100.00
4398;BME280;2213;49.720;7.296;2023-06-26T06:54:30;98008.38;;;20.81;100.00
4398;BME280;2213;49.720;7.296;2023-06-26T06:56:59;98009.78;;;20.88;100.00
4398;BME280;2213;49.720;7.296;2023-06-26T06:59:28;98004.78;;;20.97;100.00
4398;BME280;2213;49.720;7.296;2023-06-26T07:01:57;98006.16;;;21.04;100.00
4398;BME280;2213;49.720;7.296;2023-06-26T07:04:26;98004.13;;;21.12;100.00
4398;BME280;2213;49.720;7.296;2023-06-26T07:06:56;98010.84;;;21.19;100.00
4398;BME280;2213;49.720;7.296;2023-06-26T07:09:25;98011.13;;;21.28;100.00
4398;BME280;2213;49.720;7.296;2023-06-26T07:11:53;98012.56;;;21.40;100.00
4398;BME280;2213;49.720;7.296;2023-06-26T07:14:22;98013.44;;;21.51;100.00
4398;BME280;2213;49.720;7.296;2023-06-26T07:16:52;98011.91;;;21.70;100.00
4398;BME280;2213;49.720;7.296;2023-06-26T07:19:21;98008.53;;;21.85;100.00
4398;BME280;2213;49.720;7.296;2023-06-26T07:21:51;98019.28;;;22.05;96.09
4398;BME280;2213;49.720;7.296;2023-06-26T07:24:19;98022.53;;;22.17;93.38
4398;BME280;2213;49.720;7.296;2023-06-26T07:26:49;98036.41;;;22.24;91.84
4398;BME280;2213;49.720;7.296;2023-06-26T07:29:18;98032.97;;;22.34;89.87
4398;BME280;2213;49.720;7.296;2023-06-26T07:31:47;98042.31;;;22.36;89.65
4398;BME280;2213;49.720;7.296;2023-06-26T07:34:15;98039.66;;;22.41;88.23
4398;BME280;2213;49.720;7.296;2023-06-26T07:36:44;98031.94;;;22.45;87.86
4398;BME280;2213;49.720;7.296;2023-06-26T07:39:14;98043.16;;;22.52;88.15
4398;BME280;2213;49.720;7.296;2023-06-26T07:41:50;98052.47;;;22.54;88.26
4398;BME280;2213;49.720;7.296;2023-06-26T07:44:18;98053.56;;;22.64;86.08
4398;BME280;2213;49.720;7.296;2023-06-26T07:46:48;98051.47;;;22.71;85.34
4398;BME280;2213;49.720;7.296;2023-06-26T07:49:17;98049.91;;;22.80;83.37
4398;BME280;2213;49.720;7.296;2023-06-26T07:51:46;98069.09;;;22.87;83.39
4398;BME280;2213;49.720;7.296;2023-06-26T07:54:17;98065.88;;;22.95;81.20
4398;BME280;2213;49.720;7.296;2023-06-26T07:56:57;98062.19;;;23.01;79.97
4398;BME280;2213;49.720;7.296;2023-06-26T07:59:28;98059.50;;;23.06;79.45
4398;BME280;2213;49.720;7.296;2023-06-26T08:01:58;98062.19;;;23.11;78.54
4398;BME280;2213;49.720;7.296;2023-06-26T08:04:28;98068.56;;;23.15;78.08
4398;BME280;2213;49.720;7.296;2023-06-26T08:07:00;98074.72;;;23.21;78.00
4398;BME280;2213;49.720;7.296;2023-06-26T08:09:32;98074.97;;;23.24;76.67
4398;BME280;2213;49.720;7.296;2023-06-26T08:12:02;98081.66;;;23.27;76.33
4398;BME280;2213;49.720;7.296;2023-06-26T08:14:33;98073.91;;;23.30;75.78
4398;BME280;2213;49.720;7.296;2023-06-26T08:17:01;98072.81;;;23.36;76.63
4398;BME280;2213;49.720;7.296;2023-06-26T08:19:30;98074.44;;;23.37;76.39
4398;BME280;2213;49.720;7.296;2023-06-26T08:21:58;98063.22;;;23.40;75.93
4398;BME280;2213;49.720;7.296;2023-06-26T08:24:27;98065.88;;;23.40;75.40
4398;BME280;2213;49.720;7.296;2023-06-26T08:26:57;98066.47;;;23.42;75.50
4398;BME280;2213;49.720;7.296;2023-06-26T08:29:26;98070.97;;;23.47;75.40
4398;BME280;2213;49.720;7.296;2023-06-26T08:31:54;98064.31;;;23.49;75.78
4398;BME280;2213;49.720;7.296;2023-06-26T08:34:24;98062.72;;;23.48;75.82
4398;BME280;2213;49.720;7.296;2023-06-26T08:36:53;98063.78;;;23.52;75.87
4398;BME280;2213;49.720;7.296;2023-06-26T08:39:21;98049.88;;;23.55;76.23
4398;BME280;2213;49.720;7.296;2023-06-26T08:41:50;98054.94;;;23.57;76.02
4398;BME280;2213;49.720;7.296;2023-06-26T08:44:22;98051.75;;;23.60;76.79
4398;BME280;2213;49.720;7.296;2023-06-26T08:46:52;98056.53;;;23.63;76.36
4398;BME280;2213;49.720;7.296;2023-06-26T08:49:25;98049.31;;;23.69;76.60
4398;BME280;2213;49.720;7.296;2023-06-26T08:52:02;98050.38;;;23.73;77.68
4398;BME280;2213;49.720;7.296;2023-06-26T08:54:39;98045.00;;;23.83;76.75
4398;BME280;2213;49.720;7.296;2023-06-26T08:57:08;98053.22;;;24.01;74.04
4398;BME280;2213;49.720;7.296;2023-06-26T08:59:40;98041.69;;;24.06;75.15
4398;BME280;2213;49.720;7.296;2023-06-26T09:02:08;98040.09;;;24.10;74.29
4398;BME280;2213;49.720;7.296;2023-06-26T09:04:39;98057.97;;;24.20;70.72
4398;BME280;2213;49.720;7.296;2023-06-26T09:07:08;98054.22;;;24.26;69.59
4398;BME280;2213;49.720;7.296;2023-06-26T09:09:37;98057.91;;;24.35;69.08
4398;BME280;2213;49.720;7.296;2023-06-26T09:12:08;98056.81;;;24.41;67.61
4398;BME280;2213;49.720;7.296;2023-06-26T09:14:38;98062.41;;;24.44;66.77
4398;BME280;2213;49.720;7.296;2023-06-26T09:17:07;98069.59;;;24.49;67.43
4398;BME280;2213;49.720;7.296;2023-06-26T09:19:37;98075.44;;;24.56;66.66
4398;BME280;2213;49.720;7.296;2023-06-26T09:22:13;98071.41;;;24.59;65.23
4398;BME280;2213;49.720;7.296;2023-06-26T09:24:44;98075.13;;;24.63;63.87
4398;BME280;2213;49.720;7.296;2023-06-26T09:27:13;98092.78;;;24.64;61.93
4398;BME280;2213;49.720;7.296;2023-06-26T09:29:45;98101.31;;;24.66;61.73
4398;BME280;2213;49.720;7.296;2023-06-26T09:32:14;98100.78;;;24.69;61.44
4398;BME280;2213;49.720;7.296;2023-06-26T09:34:43;98095.41;;;24.69;61.22
4398;BME280;2213;49.720;7.296;2023-06-26T09:37:13;98096.53;;;24.68;60.74
4398;BME280;2213;49.720;7.296;2023-06-26T09:39:43;98089.81;;;24.70;61.06
4398;BME280;2213;49.720;7.296;2023-06-26T09:42:14;98089.50;;;24.77;60.94
4398;BME280;2213;49.720;7.296;2023-06-26T09:44:45;98098.34;;;24.72;59.85
4398;BME280;2213;49.720;7.296;2023-06-26T09:47:18;98098.09;;;24.74;60.08
4398;BME280;2213;49.720;7.296;2023-06-26T09:49:48;98091.09;;;24.78;60.46
4398;BME280;2213;49.720;7.296;2023-06-26T09:52:18;98080.91;;;24.80;60.58
4398;BME280;2213;49.720;7.296;2023-06-26T09:54:47;98098.84;;;24.79;60.44
4398;BME280;2213;49.720;7.296;2023-06-26T09:57:18;98089.75;;;24.80;60.46
4398;BME280;2213;49.720;7.296;2023-06-26T09:59:49;98086.00;;;24.81;59.51
4398;BME280;2213;49.720;7.296;2023-06-26T10:02:19;98102.88;;;24.77;58.82
4398;BME280;2213;49.720;7.296;2023-06-26T10:04:47;98091.88;;;24.78;59.17
4398;BME280;2213;49.720;7.296;2023-06-26T10:07:16;98095.91;;;24.81;58.93
4398;BME280;2213;49.720;7.296;2023-06-26T10:09:47;98080.94;;;24.85;58.27
4398;BME280;2213;49.720;7.296;2023-06-26T10:12:25;98082.50;;;24.86;57.26
4398;BME280;2213;49.720;7.296;2023-06-26T10:14:58;98087.03;;;24.90;57.37
4398;BME280;2213;49.720;7.296;2023-06-26T10:17:31;98077.63;;;24.93;57.65
4398;BME280;2213;49.720;7.296;2023-06-26T10:20:06;98075.50;;;24.95;57.87
4398;BME280;2213;49.720;7.296;2023-06-26T10:22:44;98084.56;;;24.99;56.86
4398;BME280;2213;49.720;7.296;2023-06-26T10:25:19;98078.13;;;25.00;57.11
4398;BME280;2213;49.720;7.296;2023-06-26T10:27:54;98078.66;;;25.02;57.85
4398;BME280;2213;49.720;7.296;2023-06-26T10:30:28;98087.19;;;25.04;58.10
4398;BME280;2213;49.720;7.296;2023-06-26T10:33:00;98084.25;;;25.06;57.28
4398;BME280;2213;49.720;7.296;2023-06-26T10:35:31;98096.50;;;25.12;57.78
4398;BME280;2213;49.720;7.296;2023-06-26T10:38:02;98094.59;;;25.17;57.24
4398;BME280;2213;49.720;7.296;2023-06-26T10:40:41;98104.72;;;25.20;58.01
4398;BME280;2213;49.720;7.296;2023-06-26T10:43:12;98094.50;;;25.27;58.47
4398;BME280;2213;49.720;7.296;2023-06-26T10:45:48;98109.50;;;25.28;57.93
4398;BME280;2213;49.720;7.296;2023-06-26T10:48:20;98104.63;;;25.35;58.60
4398;BME280;2213;49.720;7.296;2023-06-26T10:50:54;98111.00;;;25.39;58.96
4398;BME280;2213;49.720;7.296;2023-06-26T10:53:23;98089.84;;;25.43;59.72
4398;BME280;2213;49.720;7.296;2023-06-26T10:55:57;98101.28;;;25.48;59.91
4398;BME280;2213;49.720;7.296;2023-06-26T10:58:41;98097.81;;;25.48;58.03
4398;BME280;2213;49.720;7.296;2023-06-26T11:01:24;98090.03;;;25.51;57.74
4398;BME280;2213;49.720;7.296;2023-06-26T11:04:06;98102.88;;;25.55;57.65
4398;BME280;2213;49.720;7.296;2023-06-26T11:06:36;98102.31;;;25.58;57.84
4398;BME280;2213;49.720;7.296;2023-06-26T11:09:11;98101.75;;;25.61;58.29
4398;BME280;2213;49.720;7.296;2023-06-26T11:11:59;98112.47;;;25.61;57.60
4398;BME280;2213;49.720;7.296;2023-06-26T11:14:32;98117.25;;;25.64;55.94
4398;BME280;2213;49.720;7.296;2023-06-26T11:17:06;98117.72;;;25.71;52.63
4398;BME280;2213;49.720;7.296;2023-06-26T11:19:35;98117.72;;;25.71;51.92
4398;BME280;2213;49.720;7.296;2023-06-26T11:22:06;98125.69;;;25.76;53.75
4398;BME280;2213;49.720;7.296;2023-06-26T11:24:35;98119.81;;;25.79;55.83
4398;BME280;2213;49.720;7.296;2023-06-26T11:27:05;98116.03;;;25.80;56.01
4398;BME280;2213;49.720;7.296;2023-06-26T11:29:34;98114.69;;;25.82;55.05
4398;BME280;2213;49.720;7.296;2023-06-26T11:32:08;98125.66;;;25.81;52.40
4398;BME280;2213;49.720;7.296;2023-06-26T11:34:36;98138.50;;;25.84;51.72
4398;BME280;2213;49.720;7.296;2023-06-26T11:37:05;98134.16;;;25.88;52.04
4398;BME280;2213;49.720;7.296;2023-06-26T11:39:36;98157.78;;;25.86;51.59
4398;BME280;2213;49.720;7.296;2023-06-26T11:42:05;98148.19;;;25.80;48.72
4398;BME280;2213;49.720;7.296;2023-06-26T11:44:41;98149.78;;;25.81;41.55
4398;BME280;2213;49.720;7.296;2023-06-26T11:47:15;98143.63;;;25.80;43.50
4398;BME280;2213;49.720;7.296;2023-06-26T11:49:46;98137.66;;;25.88;44.87
4398;BME280;2213;49.720;7.296;2023-06-26T11:52:16;98137.59;;;25.93;46.15
4398;BME280;2213;49.720;7.296;2023-06-26T11:54:45;98150.66;;;26.00;45.05
4398;BME280;2213;49.720;7.296;2023-06-26T11:57:15;98131.84;;;26.05;44.85
4398;BME280;2213;49.720;7.296;2023-06-26T11:59:44;98154.03;;;26.11;45.16
4398;BME280;2213;49.720;7.296;2023-06-26T12:02:15;98156.44;;;26.12;44.15
4398;BME280;2213;49.720;7.296;2023-06-26T12:04:45;98151.66;;;26.09;42.94
4398;BME280;2213;49.720;7.296;2023-06-26T12:07:15;98151.13;;;26.07;43.36
4398;BME280;2213;49.720;7.296;2023-06-26T12:09:47;98146.28;;;26.09;44.05
4398;BME280;2213;49.720;7.296;2023-06-26T12:12:18;98140.34;;;26.12;45.24
4398;BME280;2213;49.720;7.296;2023-06-26T12:14:48;98139.53;;;26.12;45.10
4398;BME280;2213;49.720;7.296;2023-06-26T12:17:22;98144.09;;;26.11;43.59
4398;BME280;2213;49.720;7.296;2023-06-26T12:19:52;98144.41;;;26.10;43.41
4398;BME280;2213;49.720;7.296;2023-06-26T12:22:21;98151.06;;;26.12;42.63
4398;BME280;2213;49.720;7.296;2023-06-26T12:24:50;98153.72;;;26.17;42.57
4398;BME280;2213;49.720;7.296;2023-06-26T12:27:19;98149.38;;;26.21;43.74
4398;BME280;2213;49.720;7.296;2023-06-26T12:29:51;98154.19;;;26.24;43.82
4398;BME280;2213;49.720;7.296;2023-06-26T12:32:24;98153.09;;;26.25;43.77
4398;BME280;2213;49.720;7.296;2023-06-26T12:34:57;98145.84;;;26.26;42.01
4398;BME280;2213;49.720;7.296;2023-06-26T12:37:26;98157.31;;;26.31;42.47
4398;BME280;2213;49.720;7.296;2023-06-26T12:39:57;98156.25;;;26.32;41.34
4398;BME280;2213;49.720;7.296;2023-06-26T12:42:28;98159.44;;;26.34;38.73
4398;BME280;2213;49.720;7.296;2023-06-26T12:44:57;98165.31;;;26.36;38.31
4398;BME280;2213;49.720;7.296;2023-06-26T12:47:28;98163.66;;;26.40;38.14
4398;BME280;2213;49.720;7.296;2023-06-26T12:49:58;98167.88;;;26.46;39.66
4398;BME280;2213;49.720;7.296;2023-06-26T12:52:27;98168.09;;;26.50;39.67
4398;BME280;2213;49.720;7.296;2023-06-26T12:54:56;98162.75;;;26.50;39.59
4398;BME280;2213;49.720;7.296;2023-06-26T12:57:26;98163.19;;;26.57;39.99
4398;BME280;2213;49.720;7.296;2023-06-26T12:59:54;98160.72;;;26.61;40.32
4398;BME280;2213;49.720;7.296;2023-06-26T13:02:23;98170.97;;;26.59;41.01
4398;BME280;2213;49.720;7.296;2023-06-26T13:04:54;98170.66;;;26.60;41.03
4398;BME280;2213;49.720;7.296;2023-06-26T13:07:23;98167.63;;;26.67;41.09
4398;BME280;2213;49.720;7.296;2023-06-26T13:09:53;98172.63;;;26.55;39.02
4398;BME280;2213;49.720;7.296;2023-06-26T13:12:23;98166.66;;;26.58;39.95
4398;BME280;2213;49.720;7.296;2023-06-26T13:14:51;98166.66;;;26.58;39.98
4398;BME280;2213;49.720;7.296;2023-06-26T13:17:20;98171.97;;;26.63;40.24
4398;BME280;2213;49.720;7.296;2023-06-26T13:19:49;98172.50;;;26.65;40.00
4398;BME280;2213;49.720;7.296;2023-06-26T13:22:18;98171.41;;;26.66;39.85
4398;BME280;2213;49.720;7.296;2023-06-26T13:24:49;98164.88;;;26.72;40.65
4398;BME280;2213;49.720;7.296;2023-06-26T13:27:17;98176.06;;;26.79;40.76
4398;BME280;2213;49.720;7.296;2023-06-26T13:29:47;98180.31;;;26.85;40.74
4398;BME280;2213;49.720;7.296;2023-06-26T13:32:16;98186.25;;;26.82;40.46
4398;BME280;2213;49.720;7.296;2023-06-26T13:34:44;98200.97;;;26.84;40.92